Details From FGSL - MALABO
To FPST - SAO TOME INTL
Flight Number -
Tags generated
Created
Modified
Stats Distance 236 nm / 437 km
Max Altitude 24,500 ft / 7,468 m
Waypoints 7
Social Downloads 0
Likes 0
Share

Download

Looking for another format? Having issues loading an existing format? Contact us
Advertisement - Login to hide

Notes

Basic altitude profile: - Ascent Rate: 2500ft/min - Ascent Speed: 250kts - Cruise Altitude: 35000ft - Cruise Speed: 420kts - Descent Rate: 1500ft/min - Descent Speed: 250kts Options: - Use NATs: yes - Use PACOTS: yes - Use low airways: yes - Use high airways: yes

Route

FGSL GEBRO B737 STM FPST

ID Type Via Altitude (ft/m) Position (lat/lon) Dist (leg/tot) Name
O FGSL APT - 0 / 0 3.75527 / 8.70872 - / 0 nm MALABO
GEBRO FIX - 16,900 / 5,151 3.04472 / 8.26944 50 / 50 nm
RITIL FIX B737 (AWY-LO) 24,500 / 7,468 2.23417 / 7.76528 57 / 107 nm
PR NDB B737 (AWY-LO) 18,800 / 5,730 1.66600 / 7.41236 40 / 147 nm PRINCIPE NDB
IPIPI FIX B737 (AWY-LO) 7,000 / 2,134 0.77697 / 6.93059 60 / 208 nm
STM VOR B737 (AWY-LO) 7,000 / 2,134 0.37845 / 6.71706 27 / 235 nm SAO TOME VOR-DME
O FPST APT - 0 / 0 0.37817 / 6.71215 0 / 235 nm SAO TOME INTL

Altitude Profile

Advertisement - Login to hide

Weather


0- 5 10 15 20 25 30 35+ Temperature / °C

Clouds and Precipitation
Forecast for 2021-03-22 12:00 UTC. Updated 2 months ago

Ground ~20,000 ft ~40,000 ft Winds

FGSL

Details ICAO FGSL (SSG)
Name MALABO
Region Equatorial Guinea
Timezone Africa/Malabo (UTC+1.0)
Stats Elevation 76 ft / 23 m (AMSL)
Location 3.755320° 8.708710°
Runways 1
Magnetic Variation 1.017° W

METAR

FGSL 140000Z 22002KT 9999 FEW010 24/22 Q1012 NOSIG

Decode

TAF

TAF FGSL 131700Z 1318/1424 25005KT 9999 FEW010 PROB30 TEMPO 1400/1406 TS BKN008 FEW018CB PROB40 TEMPO 1418/1424 4000 TSRA BKN008 SCT018CB

Decode

Departure Runways

ID Width Length Bearing (true/mag) Surface Threshold Overrun Markings Lighting
04 151 ft / 46 m 9,674 ft / 2,949 m 41.73° / 42.74° ASPHALT 0 ft / 0 m 194 ft / 59 m PREC-APP EDGE THRESHOLD REIL-OMNI
22 151 ft / 46 m 9,674 ft / 2,949 m 221.73° / 222.74° ASPHALT 0 ft / 0 m 161 ft / 49 m PREC-APP EDGE THRESHOLD REIL-OMNI

FPST

Details ICAO FPST (TMS)
Name Sao Tome International Airport
Region São Tomé and Príncipe
Timezone Africa/Sao_Tome (UTC+1.0)
Stats Elevation 33 ft / 10 m (AMSL)
Location 0.378208° 6.712050°
Runways 1
Magnetic Variation 2.328° W

METAR

FPST 140000Z 20005KT 9999 FEW025 25/23 Q1011 NOSIG

Decode

TAF

Not found

Destination Runways

ID Width Length Bearing (true/mag) Surface Threshold Overrun Markings Lighting
11 148 ft / 45 m 7,283 ft / 2,220 m 103.52° / 105.85° ASPHALT 200 ft / 61 m 0 ft / 0 m PREC-APP EDGE THRESHOLD SSALF
29 148 ft / 45 m 7,283 ft / 2,220 m 283.52° / 285.85° ASPHALT 200 ft / 61 m 0 ft / 0 m PREC-APP EDGE THRESHOLD

Popular Alternatives